Time;durP1;ratioP1;P1;durP2;ratioP2;P2;SDS_P1;SDS_P2;PMS_P1;PMS_P2;Temp;Humidity;BMP_temperature;BMP_pressure;BME280_temperature;BME280_humidity;BME280_pressure;Samples;Min_cycle;Max_cycle;Signal;HPM_P1;HPM_P2
2024/04/07 00:00:22;;;;;;;11.15;2.45;;;16.60;99.90;;;;;;5043030;28;20127;-61
2024/04/07 00:02:49;;;;;;;8.65;2.58;;;16.70;99.90;;;;;;5041351;28;20123;-62
2024/04/07 00:05:15;;;;;;;9.02;2.38;;;16.80;99.90;;;;;;5044192;28;20048;-62
2024/04/07 00:07:41;;;;;;;5.90;2.35;;;16.70;99.90;;;;;;5044475;28;20234;-61
2024/04/07 00:10:07;;;;;;;8.20;2.30;;;16.80;99.90;;;;;;5044521;28;20272;-61
2024/04/07 00:12:32;;;;;;;9.48;3.30;;;16.80;99.90;;;;;;5049251;28;20495;-61
2024/04/07 00:14:58;;;;;;;7.07;2.25;;;16.70;99.90;;;;;;5040426;28;20080;-60
2024/04/07 00:17:24;;;;;;;4.05;2.10;;;16.70;99.90;;;;;;5050643;28;20048;-61
2024/04/07 00:19:50;;;;;;;10.35;2.45;;;16.60;99.90;;;;;;5046718;28;20404;-62
2024/04/07 00:22:15;;;;;;;8.60;2.47;;;16.60;99.90;;;;;;5050049;28;20033;-62
2024/04/07 00:24:42;;;;;;;9.18;2.28;;;16.60;99.90;;;;;;5055487;28;20104;-62
2024/04/07 00:27:08;;;;;;;4.88;2.35;;;16.60;99.90;;;;;;5044456;28;20087;-62
2024/04/07 00:29:33;;;;;;;8.45;2.92;;;16.60;99.90;;;;;;5041795;28;20479;-62
2024/04/07 00:31:59;;;;;;;7.75;2.40;;;16.60;99.90;;;;;;5043935;28;20040;-62
2024/04/07 00:34:25;;;;;;;5.30;2.03;;;16.60;99.90;;;;;;5031854;28;20052;-62
2024/04/07 00:36:51;;;;;;;5.60;2.28;;;16.60;99.90;;;;;;5040923;28;20392;-62
2024/04/07 00:39:17;;;;;;;5.90;2.72;;;16.50;99.90;;;;;;5034838;28;20746;-62
2024/04/07 00:41:43;;;;;;;6.28;2.30;;;16.50;99.90;;;;;;5042164;28;20441;-63
2024/04/07 00:44:09;;;;;;;6.28;2.55;;;16.50;99.90;;;;;;5038236;28;20037;-63
2024/04/07 00:46:34;;;;;;;5.18;2.40;;;16.50;99.90;;;;;;5041529;28;20036;-63
2024/04/07 00:49:01;;;;;;;5.30;2.28;;;16.40;99.90;;;;;;5033925;28;20219;-63
2024/04/07 00:51:27;;;;;;;5.32;2.25;;;16.40;99.90;;;;;;5045418;28;20083;-62
2024/04/07 00:53:56;;;;;;;10.50;2.53;;;16.40;99.90;;;;;;5046113;28;20059;-63
2024/04/07 00:56:22;;;;;;;;;;;16.50;99.90;;;;;;5043179;28;20057;-63
2024/04/07 00:58:48;;;;;;;;;;;16.70;99.90;;;;;;5053311;28;20216;-62
2024/04/07 01:01:14;;;;;;;;;;;17.00;99.90;;;;;;5046158;28;20327;-63
2024/04/07 01:03:39;;;;;;;;;;;17.10;99.90;;;;;;5041793;28;19921;-63
2024/04/07 01:06:05;;;;;;;;;;;17.10;99.90;;;;;;5042946;28;19928;-64
2024/04/07 01:08:31;;;;;;;;;;;17.30;99.90;;;;;;5043576;28;20444;-63
2024/04/07 01:10:56;;;;;;;;;;;17.30;99.90;;;;;;5046261;28;19916;-64
2024/04/07 01:13:25;;;;;;;;;;;17.50;99.90;;;;;;5043216;28;19921;-63
2024/04/07 01:15:51;;;;;;;;;;;17.50;99.90;;;;;;5045687;28;19954;-63
2024/04/07 01:18:17;;;;;;;;;;;17.50;99.90;;;;;;5043289;28;19925;-61
2024/04/07 01:20:42;;;;;;;;;;;17.50;99.90;;;;;;5043891;28;19921;-62
2024/04/07 01:23:13;;;;;;;;;;;17.60;99.90;;;;;;5053787;28;19932;-62
2024/04/07 01:25:38;;;;;;;;;;;17.50;99.90;;;;;;5047160;28;19994;-63
2024/04/07 01:28:05;;;;;;;;;;;17.50;99.90;;;;;;5052175;28;20524;-64
2024/04/07 01:30:31;;;;;;;;;;;17.50;99.90;;;;;;5042709;28;19966;-63
2024/04/07 01:32:57;;;;;;;;;;;17.50;99.90;;;;;;5043529;28;19921;-63
2024/04/07 01:35:23;;;;;;;;;;;17.40;99.90;;;;;;5042008;28;19931;-63
2024/04/07 01:37:48;;;;;;;;;;;17.30;99.90;;;;;;5043505;28;19970;-63
2024/04/07 01:40:14;;;;;;;;;;;17.40;99.90;;;;;;5038922;28;19921;-63
2024/04/07 01:42:40;;;;;;;;;;;17.40;99.90;;;;;;5041951;28;19921;-63
2024/04/07 01:45:06;;;;;;;;;;;17.40;99.90;;;;;;5035882;28;19966;-63
2024/04/07 01:47:32;;;;;;;;;;;17.30;99.90;;;;;;5042243;28;19967;-63
2024/04/07 01:49:58;;;;;;;;;;;17.30;99.90;;;;;;5043854;28;20422;-63
2024/04/07 01:52:23;;;;;;;;;;;17.30;99.90;;;;;;5041325;28;20243;-63
2024/04/07 01:54:49;;;;;;;;;;;17.20;99.90;;;;;;5042778;28;19950;-63
2024/04/07 01:57:15;;;;;;;;;;;17.10;99.90;;;;;;5045710;28;20200;-63
2024/04/07 01:59:40;;;;;;;;;;;17.00;99.90;;;;;;5043963;28;19920;-63
2024/04/07 02:02:06;;;;;;;;;;;16.90;99.90;;;;;;5040328;28;20063;-62
2024/04/07 02:04:32;;;;;;;;;;;16.80;99.90;;;;;;5040735;28;19926;-63
2024/04/07 02:06:57;;;;;;;;;;;16.60;99.90;;;;;;5042202;28;20169;-63
2024/04/07 02:09:23;;;;;;;;;;;16.40;99.90;;;;;;5042732;28;19921;-62
2024/04/07 02:11:49;;;;;;;;;;;16.20;99.90;;;;;;5042060;28;19920;-62
2024/04/07 02:14:14;;;;;;;;;;;16.20;99.90;;;;;;5042906;28;19924;-62
2024/04/07 02:16:40;;;;;;;;;;;16.20;99.90;;;;;;5043760;28;20035;-62
2024/04/07 02:19:06;;;;;;;;;;;16.10;99.90;;;;;;5042450;28;19924;-63
2024/04/07 02:21:32;;;;;;;;;;;16.10;99.90;;;;;;5039560;28;19921;-63
2024/04/07 02:23:58;;;;;;;;;;;16.00;99.90;;;;;;5046444;28;19975;-62
2024/04/07 02:26:23;;;;;;;;;;;16.00;99.90;;;;;;5046462;28;20278;-62
2024/04/07 02:28:49;;;;;;;;;;;15.90;99.90;;;;;;5044954;28;19993;-62
2024/04/07 02:31:15;;;;;;;;;;;15.90;99.90;;;;;;5046957;28;20021;-62
2024/04/07 02:33:41;;;;;;;;;;;15.80;99.90;;;;;;5048318;28;19917;-62
2024/04/07 02:36:06;;;;;;;;;;;15.80;99.90;;;;;;5044694;28;19982;-62
2024/04/07 02:38:32;;;;;;;;;;;15.70;99.90;;;;;;5041596;28;19921;-62
2024/04/07 02:40:58;;;;;;;;;;;15.70;99.90;;;;;;5044750;28;20480;-63
2024/04/07 02:43:24;;;;;;;;;;;15.70;99.90;;;;;;5037846;28;19917;-62
2024/04/07 02:48:34;;;;;;;;;;;15.60;99.90;;;;;;5045644;28;20394;-62
2024/04/07 02:50:59;;;;;;;;;;;15.60;99.90;;;;;;5051355;28;19920;-62
2024/04/07 02:53:25;;;;;;;;;;;15.50;99.90;;;;;;5045859;28;19924;-62
2024/04/07 02:55:50;;;;;;;;;;;15.50;99.90;;;;;;5049358;28;19995;-63
2024/04/07 02:58:16;;;;;;;;;;;15.50;99.90;;;;;;5046391;28;19991;-62
2024/04/07 03:00:42;;;;;;;;;;;15.40;99.90;;;;;;5053527;28;20405;-63
2024/04/07 03:03:08;;;;;;;;;;;15.50;99.90;;;;;;5039517;28;20384;-63
2024/04/07 03:05:37;;;;;;;;;;;15.40;99.90;;;;;;5044604;28;19925;-63
2024/04/07 03:08:03;;;;;;;;;;;15.40;99.90;;;;;;5046124;28;19928;-62
2024/04/07 03:10:28;;;;;;;;;;;15.40;99.90;;;;;;5045330;28;20426;-63
2024/04/07 03:12:54;;;;;;;;;;;15.40;99.90;;;;;;5044959;28;20427;-63
2024/04/07 03:15:19;;;;;;;;;;;15.40;99.90;;;;;;5047153;28;19931;-63
2024/04/07 03:17:45;;;;;;;;;;;15.40;99.90;;;;;;5046768;28;19931;-63
2024/04/07 03:20:11;;;;;;;;;;;15.40;99.90;;;;;;5046202;28;19921;-64
2024/04/07 03:22:36;;;;;;;;;;;15.40;99.90;;;;;;5042970;28;19920;-63
2024/04/07 03:25:02;;;;;;;;;;;15.30;99.90;;;;;;5047001;28;19921;-63
2024/04/07 03:27:28;;;;;;;;;;;15.20;99.90;;;;;;5046852;28;20398;-64
2024/04/07 03:29:53;;;;;;;;;;;15.20;99.90;;;;;;5044981;28;20247;-63
2024/04/07 03:32:19;;;;;;;;;;;15.10;99.90;;;;;;5041793;28;19947;-64
2024/04/07 03:34:44;;;;;;;;;;;15.00;99.90;;;;;;5047240;28;20573;-63
2024/04/07 03:37:10;;;;;;;;;;;14.90;99.90;;;;;;5044475;28;20015;-63
2024/04/07 03:39:36;;;;;;;;;;;14.80;99.90;;;;;;5056493;28;19921;-63
2024/04/07 03:42:02;;;;;;;;;;;14.70;99.90;;;;;;5049228;28;19964;-63
2024/04/07 03:44:28;;;;;;;;;;;14.70;99.90;;;;;;5043779;28;19960;-63
2024/04/07 03:46:57;;;;;;;;;;;14.60;99.90;;;;;;5048240;28;19962;-64
2024/04/07 03:49:23;;;;;;;;;;;14.50;99.90;;;;;;5050681;28;19956;-63
2024/04/07 03:51:49;;;;;;;;;;;14.60;99.90;;;;;;5048088;28;19978;-64
2024/04/07 03:54:14;;;;;;;;;;;14.50;99.90;;;;;;5038762;28;19929;-63
2024/04/07 03:56:40;;;;;;;;;;;14.50;99.90;;;;;;5043856;28;19924;-64
2024/04/07 03:59:05;;;;;;;;;;;14.40;99.90;;;;;;5047087;28;19925;-64
2024/04/07 04:01:31;;;;;;;;;;;14.40;99.90;;;;;;5046562;28;19920;-64
2024/04/07 04:03:57;;;;;;;;;;;14.40;99.90;;;;;;5045151;28;19920;-64
2024/04/07 04:06:22;;;;;;;;;;;14.40;99.90;;;;;;5045628;28;19921;-63
2024/04/07 04:08:48;;;;;;;;;;;14.40;99.90;;;;;;5045302;28;19927;-64
2024/04/07 04:11:14;;;;;;;;;;;14.30;99.90;;;;;;5042918;28;19920;-64
2024/04/07 04:13:39;;;;;;;;;;;14.30;99.90;;;;;;5043059;28;20007;-63
2024/04/07 04:16:06;;;;;;;;;;;14.30;99.90;;;;;;5070674;28;19959;-64
2024/04/07 04:18:32;;;;;;;;;;;14.30;99.90;;;;;;5032541;28;19921;-63
2024/04/07 04:20:58;;;;;;;;;;;14.30;99.90;;;;;;5044510;28;20003;-63
2024/04/07 04:23:23;;;;;;;;;;;14.40;99.90;;;;;;5051319;28;19920;-63
2024/04/07 04:25:52;;;;;;;;;;;14.30;99.90;;;;;;5047582;28;19921;-64
2024/04/07 04:28:19;;;;;;;;;;;14.30;99.90;;;;;;5037803;28;20011;-63
2024/04/07 04:30:58;;;;;;;;;;;14.30;99.90;;;;;;5042984;28;20763;-62
2024/04/07 04:33:25;;;;;;;;;;;14.30;99.90;;;;;;5038398;28;19921;-63
2024/04/07 04:35:50;;;;;;;;;;;14.30;99.90;;;;;;5040830;28;19974;-64
2024/04/07 04:38:16;;;;;;;;;;;14.30;99.90;;;;;;5043027;28;20345;-63
2024/04/07 04:40:54;;;;;;;;;;;14.30;99.90;;;;;;5039693;28;19925;-63
2024/04/07 04:43:21;;;;;;;;;;;14.30;99.90;;;;;;5047479;28;19928;-63
2024/04/07 04:46:05;;;;;;;;;;;14.30;99.90;;;;;;5042173;28;20421;-63
2024/04/07 04:48:31;;;;;;;;;;;14.30;99.90;;;;;;5041694;28;19920;-63
2024/04/07 04:50:57;;;;;;;;;;;14.30;99.90;;;;;;5049299;28;19966;-64
2024/04/07 04:53:22;;;;;;;;;;;14.20;99.90;;;;;;5045747;28;19973;-63
2024/04/07 04:55:48;;;;;;;;;;;14.30;99.90;;;;;;5042972;28;19924;-63
2024/04/07 04:58:14;;;;;;;;;;;14.30;99.90;;;;;;5037635;28;20083;-63
2024/04/07 05:00:40;;;;;;;;;;;14.30;99.90;;;;;;5040133;28;19943;-63
2024/04/07 05:03:05;;;;;;;;;;;14.30;99.90;;;;;;5041001;28;20360;-63
2024/04/07 05:05:31;;;;;;;;;;;14.40;99.90;;;;;;5039255;28;19920;-63
2024/04/07 05:07:57;;;;;;;;;;;14.30;99.90;;;;;;5039258;28;19924;-63
2024/04/07 05:10:22;;;;;;;;;;;14.30;99.90;;;;;;5039174;28;19925;-63
2024/04/07 05:12:48;;;;;;;;;;;14.30;99.90;;;;;;5040180;28;20165;-63
2024/04/07 05:15:13;;;;;;;;;;;14.40;99.90;;;;;;5038174;28;20028;-63
2024/04/07 05:17:39;;;;;;;;;;;14.30;99.90;;;;;;5039692;28;19921;-63
2024/04/07 05:20:05;;;;;;;;;;;14.40;99.90;;;;;;5038544;28;19925;-63
2024/04/07 05:22:31;;;;;;;;;;;14.40;99.90;;;;;;5039849;28;19951;-63
2024/04/07 05:24:57;;;;;;;;;;;14.30;99.90;;;;;;5040071;28;20326;-63
2024/04/07 05:27:22;;;;;;;;;;;14.40;99.90;;;;;;5038338;28;20311;-63
2024/04/07 05:29:50;;;;;;;;;;;14.50;99.90;;;;;;5039533;28;19921;-63
2024/04/07 05:32:15;;;;;;;;;;;14.50;99.90;;;;;;5039277;28;19970;-63
2024/04/07 05:34:41;;;;;;;;;;;14.40;99.90;;;;;;5038683;28;20415;-63
2024/04/07 05:37:06;;;;;;;;;;;14.40;99.90;;;;;;5039578;28;20379;-64
2024/04/07 05:39:32;;;;;;;;;;;14.40;99.90;;;;;;5039922;28;19956;-63
2024/04/07 05:41:59;;;;;;;;;;;14.40;99.90;;;;;;5041472;28;19920;-63
2024/04/07 05:44:25;;;;;;;;;;;14.40;99.90;;;;;;5036048;28;19927;-62
2024/04/07 05:46:51;;;;;;;;;;;14.40;99.90;;;;;;5038007;28;19920;-63
2024/04/07 05:49:17;;;;;;;;;;;14.40;99.90;;;;;;5038469;28;19921;-64
2024/04/07 05:51:42;;;;;;;;;;;14.40;99.90;;;;;;5039889;28;19921;-63
2024/04/07 05:54:08;;;;;;;;;;;14.50;99.90;;;;;;5037727;28;19993;-63
2024/04/07 05:56:33;;;;;;;;;;;14.50;99.90;;;;;;5042631;28;20200;-63
2024/04/07 05:58:59;;;;;;;;;;;14.50;99.90;;;;;;5039941;28;20394;-63
2024/04/07 06:01:26;;;;;;;;;;;14.50;99.90;;;;;;5039007;28;20399;-63
2024/04/07 06:03:51;;;;;;;;;;;14.60;99.90;;;;;;5038666;28;20280;-63
2024/04/07 06:06:17;;;;;;;;;;;14.60;99.90;;;;;;5041031;28;19927;-62
2024/04/07 06:08:43;;;;;;;;;;;14.50;99.90;;;;;;5039357;28;19944;-62
2024/04/07 06:11:08;;;;;;;;;;;14.60;99.90;;;;;;5039814;28;19920;-62
2024/04/07 06:13:34;;;;;;;;;;;14.70;99.90;;;;;;5037916;28;20338;-62
2024/04/07 06:16:00;;;;;;;;;;;14.70;99.90;;;;;;5038361;28;19925;-62
2024/04/07 06:18:26;;;;;;;;;;;14.80;99.90;;;;;;5037609;28;20595;-62
2024/04/07 06:20:53;;;;;;;;;;;14.70;99.90;;;;;;5039812;28;19921;-62
2024/04/07 06:23:19;;;;;;;;;;;14.80;99.90;;;;;;5038197;28;20228;-62
2024/04/07 06:25:47;;;;;;;;;;;14.80;99.90;;;;;;5039139;28;19927;-62
2024/04/07 06:28:13;;;;;;;;;;;14.70;99.90;;;;;;5031790;28;19925;-63
2024/04/07 06:30:38;;;;;;;;;;;14.70;99.90;;;;;;5036118;28;20645;-63
2024/04/07 06:33:04;;;;;;;;;;;14.60;99.90;;;;;;5037284;28;20008;-63
2024/04/07 06:35:30;;;;;;;;;;;14.60;99.90;;;;;;5033178;28;20023;-62
2024/04/07 06:37:56;;;;;;;;;;;14.60;99.90;;;;;;5038418;28;20011;-62
2024/04/07 06:40:21;;;;;;;;;;;14.60;99.90;;;;;;5037848;28;19924;-62
2024/04/07 06:42:47;;;;;;;;;;;14.60;99.90;;;;;;5037088;28;20012;-62
2024/04/07 06:45:13;;;;;;;;;;;14.60;99.90;;;;;;5038995;28;19921;-62
2024/04/07 06:47:38;;;;;;;;;;;14.70;99.90;;;;;;5036531;28;19927;-62
2024/04/07 06:50:05;;;;;;;;;;;15.10;99.90;;;;;;5038004;28;20034;-63
2024/04/07 06:52:30;;;;;;;;;;;15.50;99.90;;;;;;5038927;28;20011;-63
2024/04/07 06:54:56;;;;;;;;;;;15.80;99.90;;;;;;5037500;28;19921;-62
2024/04/07 06:57:21;;;;;;;;;;;16.10;99.90;;;;;;5036453;28;20011;-62
2024/04/07 06:59:49;;;;;;;;;;;16.40;99.90;;;;;;5038780;28;20008;-63
2024/04/07 07:02:15;;;;;;;;;;;16.50;99.90;;;;;;5037531;28;19952;-63
2024/04/07 07:04:41;;;;;;;;;;;16.60;99.90;;;;;;5038624;28;19916;-63
2024/04/07 07:07:07;;;;;;;;;;;16.90;99.90;;;;;;5036396;28;19960;-62
2024/04/07 07:09:33;;;;;;;;;;;17.20;99.90;;;;;;5041298;28;20004;-62
2024/04/07 07:11:58;;;;;;;;;;;17.30;99.90;;;;;;5041907;28;19981;-61
2024/04/07 07:14:25;;;;;;;;;;;17.50;99.90;;;;;;5041582;28;19930;-63
2024/04/07 07:16:50;;;;;;;;;;;17.80;99.90;;;;;;5042160;28;19990;-63
2024/04/07 07:19:16;;;;;;;;;;;17.80;99.90;;;;;;5040135;28;19934;-63
2024/04/07 07:21:42;;;;;;;;;;;18.00;99.90;;;;;;5042441;28;20075;-63
2024/04/07 07:24:08;;;;;;;;;;;18.30;99.90;;;;;;5038341;28;20057;-62
2024/04/07 07:26:34;;;;;;;;;;;18.60;99.90;;;;;;5042624;28;19978;-62
2024/04/07 07:28:59;;;;;;;;;;;18.60;99.90;;;;;;5042259;28;20259;-62
2024/04/07 07:31:27;;;;;;;;;;;18.80;99.90;;;;;;5038603;28;19925;-63
2024/04/07 07:33:53;;;;;;;;;;;19.00;99.90;;;;;;5041997;28;19920;-63
2024/04/07 07:36:18;;;;;;;;;;;19.20;99.90;;;;;;5040598;28;19977;-63
2024/04/07 07:38:45;;;;;;;;;;;19.30;99.90;;;;;;5042250;28;19921;-63
2024/04/07 07:41:11;;;;;;;;;;;19.40;99.90;;;;;;5039347;28;19921;-63
2024/04/07 07:43:37;;;;;;;;;;;19.50;99.90;;;;;;5041794;28;19921;-63
2024/04/07 07:46:02;;;;;;;;;;;19.70;99.90;;;;;;5041283;28;20473;-63
2024/04/07 07:48:28;;;;;;;;;;;19.70;99.90;;;;;;5041040;28;19928;-63
2024/04/07 07:50:53;;;;;;;;;;;20.00;99.90;;;;;;5041641;28;20347;-63
2024/04/07 07:53:19;;;;;;;;;;;19.90;99.90;;;;;;5040693;28;19920;-63
2024/04/07 07:55:46;;;;;;;;;;;19.90;99.90;;;;;;5041442;28;20410;-62
2024/04/07 07:58:11;;;;;;;;;;;20.10;99.90;;;;;;5041843;28;19928;-63
2024/04/07 08:00:37;;;;;;;;;;;20.00;99.90;;;;;;5041563;28;19921;-63
2024/04/07 08:03:03;;;;;;;;;;;20.00;99.90;;;;;;5040513;28;20388;-63
2024/04/07 08:05:28;;;;;;;;;;;20.50;99.90;;;;;;5041675;28;20238;-63
2024/04/07 08:07:54;;;;;;;;;;;20.30;99.90;;;;;;5042282;28;19921;-63
2024/04/07 08:10:20;;;;;;;;;;;20.30;99.90;;;;;;5055075;28;19920;-63
2024/04/07 08:12:46;;;;;;;;;;;20.20;99.90;;;;;;5039886;28;19925;-63
2024/04/07 08:15:11;;;;;;;;;;;20.40;99.90;;;;;;5039359;28;20081;-63
2024/04/07 08:17:37;;;;;;;;;;;20.50;99.90;;;;;;5041847;28;20383;-62
2024/04/07 08:20:04;;;;;;;;;;;20.40;99.90;;;;;;5038912;28;19920;-62
2024/04/07 08:22:29;;;;;;;;;;;20.40;99.90;;;;;;5041346;28;19943;-62
2024/04/07 08:24:55;;;;;;;;;;;20.60;99.90;;;;;;5040445;28;20384;-63
2024/04/07 08:27:21;;;;;;;;;;;20.50;99.90;;;;;;5041318;28;19917;-63
2024/04/07 08:29:47;;;;;;;;;;;20.50;99.90;;;;;;5040804;28;21088;-62
2024/04/07 08:32:13;;;;;;;;;;;20.20;99.90;;;;;;5039638;28;19924;-63
2024/04/07 08:34:39;;;;;;;;;;;20.50;99.90;;;;;;5042360;28;20304;-62
2024/04/07 08:37:05;;;;;;;;;;;20.30;99.90;;;;;;5039969;28;19925;-63
2024/04/07 08:39:30;;;;;;;;;;;20.50;99.90;;;;;;5040344;28;19931;-63
2024/04/07 08:41:58;;;;;;;;;;;20.80;99.90;;;;;;5040976;28;19921;-63
2024/04/07 08:44:25;;;;;;;;;;;21.10;99.90;;;;;;5040589;28;19927;-62
2024/04/07 08:46:52;;;;;;;;;;;20.80;99.90;;;;;;5040179;28;20462;-63
2024/04/07 08:49:18;;;;;;;;;;;20.90;99.90;;;;;;5039234;28;19944;-62
2024/04/07 08:51:45;;;;;;;;;;;20.90;99.90;;;;;;5041285;28;20387;-63
2024/04/07 08:54:10;;;;;;;;;;;21.10;99.90;;;;;;5039833;28;19927;-62
2024/04/07 08:56:39;;;;;;;;;;;20.70;99.90;;;;;;5040437;28;19928;-63
2024/04/07 08:59:08;;;;;;;;;;;20.70;99.90;;;;;;5039740;28;20135;-63
2024/04/07 09:01:34;;;;;;;;;;;20.40;99.90;;;;;;5040329;28;19921;-62
2024/04/07 09:04:00;;;;;;;;;;;20.00;99.90;;;;;;5040020;28;19927;-63
2024/04/07 09:06:27;;;;;;;;;;;20.10;99.90;;;;;;5039393;28;19924;-62
2024/04/07 09:08:53;;;;;;;;;;;19.90;99.90;;;;;;5038809;28;20375;-62
2024/04/07 09:11:19;;;;;;;;;;;19.70;99.90;;;;;;5039828;28;20355;-63
2024/04/07 09:13:45;;;;;;;;;;;19.40;99.90;;;;;;5041005;28;19924;-62
2024/04/07 09:16:10;;;;;;;;;;;19.10;99.90;;;;;;5039267;28;20493;-62
2024/04/07 09:18:36;;;;;;;;;;;19.40;99.90;;;;;;5039954;28;19920;-62
2024/04/07 09:21:02;;;;;;;;;;;19.60;99.90;;;;;;5040238;28;19964;-62
2024/04/07 09:23:28;;;;;;;;;;;19.90;99.90;;;;;;5039933;28;20187;-62
2024/04/07 09:25:54;;;;;;;;;;;20.20;99.90;;;;;;5039692;28;20426;-62
2024/04/07 09:28:20;;;;;;;;;;;20.40;99.90;;;;;;5038800;28;19920;-62
2024/04/07 09:30:46;;;;;;;;;;;20.30;99.90;;;;;;5038902;28;20093;-61
2024/04/07 09:33:12;;;;;;;;;;;20.60;99.90;;;;;;5039097;28;20382;-62
2024/04/07 09:35:38;;;;;;;;;;;20.60;99.90;;;;;;5040101;28;19931;-62
2024/04/07 09:38:04;;;;;;;;;;;20.90;99.90;;;;;;5038910;28;19928;-62
2024/04/07 09:40:30;;;;;;;;;;;20.70;99.90;;;;;;5037326;28;19932;-62
2024/04/07 09:42:58;;;;;;;;;;;21.00;99.90;;;;;;5040163;28;19979;-62
2024/04/07 09:45:24;;;;;;;;;;;20.90;99.90;;;;;;5040054;28;20433;-61
2024/04/07 09:47:53;;;;;;;;;;;20.90;99.80;;;;;;5038336;28;19924;-61
2024/04/07 09:50:25;;;;;;;;;;;20.70;99.90;;;;;;5039282;28;20313;-62
2024/04/07 09:52:52;;;;;;;;;;;20.90;99.90;;;;;;5039040;28;19928;-62
2024/04/07 09:55:17;;;;;;;;;;;20.70;99.90;;;;;;5038189;28;19925;-62
2024/04/07 09:57:43;;;;;;;;;;;20.60;99.90;;;;;;5037941;28;19973;-62
2024/04/07 10:00:12;;;;;;;;;;;20.40;99.90;;;;;;5039755;28;19921;-62
2024/04/07 10:02:39;;;;;;;;;;;20.20;99.90;;;;;;5037229;28;20101;-62
2024/04/07 10:05:05;;;;;;;;;;;20.10;99.90;;;;;;5036908;28;20395;-62
2024/04/07 10:07:32;;;;;;;;;;;20.30;99.90;;;;;;5038760;28;20054;-62
2024/04/07 10:09:58;;;;;;;;;;;20.40;99.90;;;;;;5040259;28;20447;-62
2024/04/07 10:12:30;;;;;;;;;;;20.50;99.90;;;;;;5038117;28;19995;-62
2024/04/07 10:14:56;;;;;;;;;;;20.60;99.90;;;;;;5036628;28;19931;-62
2024/04/07 10:17:22;;;;;;;;;;;20.60;99.90;;;;;;5036954;28;19925;-62
2024/04/07 10:19:49;;;;;;;;;;;20.70;99.90;;;;;;5037186;28;20477;-63
2024/04/07 10:22:17;;;;;;;;;;;20.80;99.90;;;;;;5039936;28;19990;-62
2024/04/07 10:24:50;;;;;;;;;;;20.70;99.90;;;;;;5039634;28;20059;-62
2024/04/07 10:27:23;;;;;;;;;;;20.70;99.90;;;;;;5037343;28;19930;-61
2024/04/07 10:29:52;;;;;;;;;;;20.90;99.90;;;;;;5039998;28;19929;-62
2024/04/07 10:32:33;;;;;;;;;;;21.00;99.90;;;;;;5039481;28;20039;-62
2024/04/07 10:35:10;;;;;;;;;;;21.30;99.90;;;;;;5039186;28;20316;-62
2024/04/07 10:37:36;;;;;;;;;;;21.40;99.90;;;;;;5038372;28;19928;-62
2024/04/07 10:40:03;;;;;;;;;;;21.50;99.90;;;;;;5037794;28;19927;-63
2024/04/07 10:42:28;;;;;;;;;;;21.70;99.90;;;;;;5037412;28;20004;-63
2024/04/07 10:44:54;;;;;;;;;;;21.90;99.90;;;;;;5041466;28;20303;-63
2024/04/07 10:47:20;;;;;;;;;;;21.70;97.90;;;;;;5043564;28;20780;-62
2024/04/07 10:49:46;;;;;;;;;;;22.00;99.70;;;;;;5043313;28;20122;-63
2024/04/07 10:52:15;;;;;;;;;;;22.20;97.90;;;;;;5042861;28;20393;-62
2024/04/07 10:54:41;;;;;;;;;;;22.20;97.40;;;;;;5042608;28;19947;-63
2024/04/07 10:57:11;;;;;;;;;;;22.10;97.80;;;;;;5039239;28;20826;-63
2024/04/07 10:59:37;;;;;;;;;;;21.90;98.20;;;;;;5041777;28;19944;-63
2024/04/07 11:02:03;;;;;;;;;;;22.00;98.40;;;;;;5043200;28;19921;-62
2024/04/07 11:04:29;;;;;;;;;;;21.80;98.70;;;;;;5040265;28;19974;-62
2024/04/07 11:06:55;;;;;;;;;;;21.80;98.20;;;;;;5039960;28;20281;-63
2024/04/07 11:09:21;;;;;;;;;;;22.00;98.50;;;;;;5038802;28;19921;-63
2024/04/07 11:11:46;;;;;;;;;;;22.20;98.20;;;;;;5041915;28;19924;-63
2024/04/07 11:14:12;;;;;;;;;;;22.40;97.80;;;;;;5042336;28;19924;-62
2024/04/07 11:16:38;;;;;;;;;;;22.70;96.70;;;;;;5040363;28;20015;-62
2024/04/07 11:19:04;;;;;;;;;;;22.40;94.30;;;;;;5039899;28;20003;-63
2024/04/07 11:21:30;;;;;;;;;;;22.30;96.30;;;;;;5040928;28;20037;-63
2024/04/07 11:23:56;;;;;;;;;;;21.80;95.20;;;;;;5040663;28;20290;-62
2024/04/07 11:26:22;;;;;;;;;;;21.60;96.30;;;;;;5041573;28;19920;-62
2024/04/07 11:28:49;;;;;;;;;;;21.90;96.20;;;;;;5040986;28;20409;-62
2024/04/07 11:31:18;;;;;;;;;;;22.10;95.60;;;;;;5043614;28;19920;-62
2024/04/07 11:33:44;;;;;;;;;;;22.20;95.60;;;;;;5041368;28;19924;-63
2024/04/07 11:36:10;;;;;;;;;;;22.20;95.30;;;;;;5041348;28;19931;-63
2024/04/07 11:38:35;;;;;;;;;;;22.30;94.80;;;;;;5041165;28;19920;-63
2024/04/07 11:41:01;;;;;;;;;;;22.30;94.40;;;;;;5040028;28;19920;-62
2024/04/07 11:43:27;;;;;;;;;;;22.40;94.20;;;;;;5040423;28;19966;-62
2024/04/07 11:45:52;;;;;;;;;;;22.20;94.50;;;;;;5041205;28;20289;-62
2024/04/07 11:48:18;;;;;;;;;;;22.50;93.80;;;;;;5040979;28;20003;-62
2024/04/07 11:50:43;;;;;;;;;;;22.60;94.10;;;;;;5040493;28;20369;-62
2024/04/07 11:53:09;;;;;;;;;;;22.80;93.20;;;;;;5040949;28;19928;-62
2024/04/07 11:55:35;;;;;;;;;;;22.80;94.10;;;;;;5040144;28;19924;-62
2024/04/07 11:58:00;;;;;;;;;;;22.60;93.20;;;;;;5040903;28;20321;-62
2024/04/07 12:00:26;;;;;;;;;;;22.60;92.90;;;;;;5041244;28;19920;-62
2024/04/07 12:02:51;;;;;;;;;;;22.80;93.30;;;;;;5039304;28;20290;-63
2024/04/07 12:05:17;;;;;;;;;;;22.90;92.50;;;;;;5040471;28;19927;-62
2024/04/07 12:07:43;;;;;;;;;;;23.00;93.00;;;;;;5042447;28;19947;-63
2024/04/07 12:10:08;;;;;;;;;;;23.10;93.10;;;;;;5037920;28;19924;-62
2024/04/07 12:12:34;;;;;;;;;;;23.20;93.20;;;;;;5040090;28;20380;-62
2024/04/07 12:15:00;;;;;;;;;;;23.40;93.80;;;;;;5041828;28;19987;-63
2024/04/07 12:17:25;;;;;;;;;;;23.40;93.10;;;;;;5038311;28;20268;-62
2024/04/07 12:19:51;;;;;;;;;;;23.60;93.80;;;;;;5035834;28;19925;-62
2024/04/07 12:22:19;;;;;;;;;;;23.80;93.30;;;;;;5040352;28;20397;-62
2024/04/07 12:24:45;;;;;;;;;;;23.60;93.90;;;;;;5056729;28;20378;-62
2024/04/07 12:27:10;;;;;;;;;;;23.60;93.00;;;;;;5041204;28;19930;-62
2024/04/07 12:29:36;;;;;;;;;;;23.50;93.80;;;;;;5041520;28;20002;-62
2024/04/07 12:32:03;;;;;;;;;;;23.60;93.80;;;;;;5039914;28;19995;-62
2024/04/07 12:34:29;;;;;;;;;;;23.60;93.10;;;;;;5039134;28;19924;-62
2024/04/07 12:36:54;;;;;;;;;;;23.50;92.40;;;;;;5040002;28;19925;-62
2024/04/07 12:39:20;;;;;;;;;;;23.70;93.90;;;;;;5039971;28;19920;-63
2024/04/07 12:41:49;;;;;;;;;;;23.70;92.20;;;;;;5040835;28;20008;-62
2024/04/07 12:44:15;;;;;;;;;;;23.70;91.80;;;;;;5039883;28;19978;-62
2024/04/07 12:46:42;;;;;;;;;;;23.30;90.20;;;;;;5040028;28;20419;-62
2024/04/07 12:49:07;;;;;;;;;;;23.30;92.00;;;;;;5041011;28;20121;-62
2024/04/07 12:51:33;;;;;;;;;;;23.60;92.90;;;;;;5040760;28;19921;-62
2024/04/07 12:53:58;;;;;;;;;;;23.40;92.10;;;;;;5041114;28;20349;-61
2024/04/07 12:56:24;;;;;;;;;;;23.40;91.50;;;;;;5041657;28;19978;-62
2024/04/07 12:58:50;;;;;;;;;;;23.20;91.30;;;;;;5039703;28;20291;-62
2024/04/07 13:01:16;;;;;;;;;;;23.40;92.80;;;;;;5038870;28;19978;-62
2024/04/07 13:03:41;;;;;;;;;;;23.20;92.40;;;;;;5041421;28;19924;-62
2024/04/07 13:06:07;;;;;;;;;;;23.30;93.30;;;;;;5039846;28;20440;-62
2024/04/07 13:08:32;;;;;;;;;;;23.40;91.10;;;;;;5040106;28;19921;-63
2024/04/07 13:11:01;;;;;;;;;;;23.30;91.60;;;;;;5040604;28;19920;-62
2024/04/07 13:13:27;;;;;;;;;;;23.20;92.40;;;;;;5039325;28;19982;-62
2024/04/07 13:15:55;;;;;;;;;;;23.40;91.50;;;;;;5038767;28;20291;-62
2024/04/07 13:18:21;;;;;;;;;;;23.50;91.30;;;;;;5040053;28;19921;-62
2024/04/07 13:20:47;;;;;;;;;;;23.50;90.90;;;;;;5041078;28;19920;-62
2024/04/07 13:23:13;;;;;;;;;;;23.40;91.20;;;;;;5040411;28;19921;-61
2024/04/07 13:25:39;;;;;;;;;;;23.60;91.60;;;;;;5041220;28;20262;-62
2024/04/07 13:28:08;;;;;;;;;;;23.60;91.80;;;;;;5039658;28;19920;-63
2024/04/07 13:30:37;;;;;;;;;;;23.60;90.50;;;;;;5041854;28;19924;-63
2024/04/07 13:33:04;;;;;;;;;;;23.40;90.50;;;;;;5039426;28;19927;-63
2024/04/07 13:35:29;;;;;;;;;;;23.70;92.60;;;;;;5055543;28;20403;-63
2024/04/07 13:37:55;;;;;;;;;;;23.70;91.90;;;;;;5040705;28;19930;-64
2024/04/07 13:40:22;;;;;;;;;;;23.70;91.10;;;;;;5039485;28;19924;-63
2024/04/07 13:42:47;;;;;;;;;;;23.70;89.90;;;;;;5040099;28;20365;-63
2024/04/07 13:45:13;;;;;;;;;;;23.60;90.40;;;;;;5040123;28;19925;-63
2024/04/07 13:47:39;;;;;;;;;;;23.60;88.50;;;;;;5040796;28;19920;-63
2024/04/07 13:50:07;;;;;;;;;;;23.60;90.50;;;;;;5039618;28;20026;-62
2024/04/07 13:52:35;;;;;;;;;;;23.70;89.20;;;;;;5040709;28;19932;-63
2024/04/07 13:55:02;;;;;;;;;;;23.70;90.00;;;;;;5039458;28;20027;-63
2024/04/07 13:57:27;;;;;;;;;;;23.70;89.50;;;;;;5040618;28;20073;-63
2024/04/07 13:59:54;;;;;;;;;;;23.70;89.10;;;;;;5040499;28;19999;-62
2024/04/07 14:02:20;;;;;;;;;;;23.80;88.40;;;;;;5040082;28;19927;-63
2024/04/07 14:04:45;;;;;;;;;;;23.80;89.60;;;;;;5040316;28;20307;-63
2024/04/07 14:07:11;;;;;;;;;;;23.70;88.00;;;;;;5039027;28;20002;-63